Elyria, Ohio
Current Conditions -  °F | °C
As of 2:53 PM on Wednesday 17 Dec 2014 (Local Time) from KLPR Reporting Station
Overcast Overcast  
Wind Chill: 17°   Ceiling: 1900
Heat Index: 30°   Visibility: 10mi
Dew Point: 23°   Wind: 21mph
Humidity: 75%   Direction: 290°WNW
Pressure: 30.1"   Gusts: 24mph
Location:  41.37°N, 82.1°W
Report Text: KLPR 171953Z AUTO 29018G21KT 10SM OVC019 M01/M05 A3010 RMK AO2 SLP200 T10111050 TSNO
Loading
Personal Weather Stations






























Interactive Weather Map New forecast layout! Learn more

10-Day Weather Forecast

Advertisements
Track Severe Weather on mobile